sensor_id;sensor_type;location;lat;lon;timestamp;temperature;humidity
51914;DHT22;37940;53.002;6.930;2022-09-12T00:01:43;13.50;99.90
51914;DHT22;37940;53.002;6.930;2022-09-12T00:04:09;13.50;99.90
51914;DHT22;37940;53.002;6.930;2022-09-12T00:06:37;13.50;99.90
51914;DHT22;37940;53.002;6.930;2022-09-12T00:09:08;13.40;99.90
51914;DHT22;37940;53.002;6.930;2022-09-12T00:11:36;13.40;99.90
51914;DHT22;37940;53.002;6.930;2022-09-12T00:14:03;13.40;99.90
51914;DHT22;37940;53.002;6.930;2022-09-12T00:16:31;13.40;99.90
51914;DHT22;37940;53.002;6.930;2022-09-12T00:18:57;13.30;99.90
51914;DHT22;37940;53.002;6.930;2022-09-12T00:21:23;13.30;99.90
51914;DHT22;37940;53.002;6.930;2022-09-12T00:23:49;13.30;99.90
51914;DHT22;37940;53.002;6.930;2022-09-12T00:26:16;13.30;99.90
51914;DHT22;37940;53.002;6.930;2022-09-12T00:28:42;13.30;99.90
51914;DHT22;37940;53.002;6.930;2022-09-12T00:31:17;13.30;99.90
51914;DHT22;37940;53.002;6.930;2022-09-12T00:33:43;13.20;99.90
51914;DHT22;37940;53.002;6.930;2022-09-12T00:36:12;13.20;99.90
51914;DHT22;37940;53.002;6.930;2022-09-12T00:38:39;13.20;99.90
51914;DHT22;37940;53.002;6.930;2022-09-12T00:41:12;13.10;99.90
51914;DHT22;37940;53.002;6.930;2022-09-12T00:43:42;13.10;99.90
51914;DHT22;37940;53.002;6.930;2022-09-12T00:46:30;13.10;99.90
51914;DHT22;37940;53.002;6.930;2022-09-12T00:49:19;13.00;99.90
51914;DHT22;37940;53.002;6.930;2022-09-12T00:51:52;13.00;99.90
51914;DHT22;37940;53.002;6.930;2022-09-12T00:54:21;13.00;99.90
51914;DHT22;37940;53.002;6.930;2022-09-12T00:56:50;12.90;99.90
51914;DHT22;37940;53.002;6.930;2022-09-12T00:59:20;12.90;99.90
51914;DHT22;37940;53.002;6.930;2022-09-12T01:01:48;12.90;99.90
51914;DHT22;37940;53.002;6.930;2022-09-12T01:04:16;13.00;99.90
51914;DHT22;37940;53.002;6.930;2022-09-12T01:06:43;13.00;99.90
51914;DHT22;37940;53.002;6.930;2022-09-12T01:09:13;13.00;99.90
51914;DHT22;37940;53.002;6.930;2022-09-12T01:11:40;13.00;99.90
51914;DHT22;37940;53.002;6.930;2022-09-12T01:14:07;13.00;99.90
51914;DHT22;37940;53.002;6.930;2022-09-12T01:16:37;12.90;99.90
51914;DHT22;37940;53.002;6.930;2022-09-12T01:27:18;12.80;99.90
51914;DHT22;37940;53.002;6.930;2022-09-12T01:33:02;12.80;99.90
51914;DHT22;37940;53.002;6.930;2022-09-12T01:38:38;12.80;99.90
51914;DHT22;37940;53.002;6.930;2022-09-12T01:41:29;12.70;99.90
51914;DHT22;37940;53.002;6.930;2022-09-12T01:44:01;12.70;99.90
51914;DHT22;37940;53.002;6.930;2022-09-12T01:46:44;12.70;99.90
51914;DHT22;37940;53.002;6.930;2022-09-12T01:49:31;12.60;99.90
51914;DHT22;37940;53.002;6.930;2022-09-12T01:52:19;12.60;99.90
51914;DHT22;37940;53.002;6.930;2022-09-12T01:54:52;12.60;99.90
51914;DHT22;37940;53.002;6.930;2022-09-12T01:57:37;12.60;99.90
51914;DHT22;37940;53.002;6.930;2022-09-12T02:00:09;12.60;99.90
51914;DHT22;37940;53.002;6.930;2022-09-12T02:02:46;12.60;99.90
51914;DHT22;37940;53.002;6.930;2022-09-12T02:05:31;12.60;99.90
51914;DHT22;37940;53.002;6.930;2022-09-12T02:08:13;12.60;99.90
51914;DHT22;37940;53.002;6.930;2022-09-12T02:10:45;12.60;99.90
51914;DHT22;37940;53.002;6.930;2022-09-12T02:13:19;12.50;99.90
51914;DHT22;37940;53.002;6.930;2022-09-12T02:15:54;12.50;99.90
51914;DHT22;37940;53.002;6.930;2022-09-12T02:18:20;12.50;99.90
51914;DHT22;37940;53.002;6.930;2022-09-12T02:20:47;12.50;99.90
51914;DHT22;37940;53.002;6.930;2022-09-12T02:23:18;12.50;99.90
51914;DHT22;37940;53.002;6.930;2022-09-12T02:25:48;12.50;99.90
51914;DHT22;37940;53.002;6.930;2022-09-12T02:28:21;12.50;99.90
51914;DHT22;37940;53.002;6.930;2022-09-12T02:34:14;12.50;99.90
51914;DHT22;37940;53.002;6.930;2022-09-12T02:39:28;12.50;99.90
51914;DHT22;37940;53.002;6.930;2022-09-12T02:41:54;12.50;99.90
51914;DHT22;37940;53.002;6.930;2022-09-12T02:44:22;12.40;99.90
51914;DHT22;37940;53.002;6.930;2022-09-12T02:46:52;12.40;99.90
51914;DHT22;37940;53.002;6.930;2022-09-12T02:49:18;12.50;99.90
51914;DHT22;37940;53.002;6.930;2022-09-12T02:51:45;12.40;99.90
51914;DHT22;37940;53.002;6.930;2022-09-12T02:54:12;12.40;99.90
51914;DHT22;37940;53.002;6.930;2022-09-12T02:56:42;12.40;99.90
51914;DHT22;37940;53.002;6.930;2022-09-12T02:59:09;12.40;99.90
51914;DHT22;37940;53.002;6.930;2022-09-12T03:01:48;12.40;99.90
51914;DHT22;37940;53.002;6.930;2022-09-12T03:10:18;12.40;99.90
51914;DHT22;37940;53.002;6.930;2022-09-12T03:21:08;12.40;99.90
51914;DHT22;37940;53.002;6.930;2022-09-12T03:23:58;12.40;99.90
51914;DHT22;37940;53.002;6.930;2022-09-12T03:29:12;12.40;99.90
51914;DHT22;37940;53.002;6.930;2022-09-12T03:31:50;12.50;99.90
51914;DHT22;37940;53.002;6.930;2022-09-12T03:34:17;12.50;99.90
51914;DHT22;37940;53.002;6.930;2022-09-12T03:36:43;12.50;99.90
51914;DHT22;37940;53.002;6.930;2022-09-12T03:39:08;12.50;99.90
51914;DHT22;37940;53.002;6.930;2022-09-12T03:41:34;12.50;99.90
51914;DHT22;37940;53.002;6.930;2022-09-12T03:44:00;12.50;99.90
51914;DHT22;37940;53.002;6.930;2022-09-12T03:46:26;12.50;99.90
51914;DHT22;37940;53.002;6.930;2022-09-12T03:48:52;12.50;99.90
51914;DHT22;37940;53.002;6.930;2022-09-12T03:51:17;12.40;99.90
51914;DHT22;37940;53.002;6.930;2022-09-12T03:53:43;12.50;99.90
51914;DHT22;37940;53.002;6.930;2022-09-12T03:56:10;12.40;99.90
51914;DHT22;37940;53.002;6.930;2022-09-12T03:58:37;12.40;99.90
51914;DHT22;37940;53.002;6.930;2022-09-12T04:01:10;12.40;99.90
51914;DHT22;37940;53.002;6.930;2022-09-12T04:03:38;12.40;99.90
51914;DHT22;37940;53.002;6.930;2022-09-12T04:06:09;12.40;99.90
51914;DHT22;37940;53.002;6.930;2022-09-12T04:08:36;12.40;99.90
51914;DHT22;37940;53.002;6.930;2022-09-12T04:11:12;12.40;99.90
51914;DHT22;37940;53.002;6.930;2022-09-12T04:13:40;12.40;99.90
51914;DHT22;37940;53.002;6.930;2022-09-12T04:16:06;12.40;99.90
51914;DHT22;37940;53.002;6.930;2022-09-12T04:18:33;12.40;99.90
51914;DHT22;37940;53.002;6.930;2022-09-12T04:21:03;12.40;99.90
51914;DHT22;37940;53.002;6.930;2022-09-12T04:23:30;12.40;99.90
51914;DHT22;37940;53.002;6.930;2022-09-12T04:25:57;12.40;99.90
51914;DHT22;37940;53.002;6.930;2022-09-12T04:28:23;12.40;99.90
51914;DHT22;37940;53.002;6.930;2022-09-12T04:30:49;12.30;99.90
51914;DHT22;37940;53.002;6.930;2022-09-12T04:33:16;12.30;99.90
51914;DHT22;37940;53.002;6.930;2022-09-12T04:35:41;12.30;99.90
51914;DHT22;37940;53.002;6.930;2022-09-12T04:38:08;12.30;99.90
51914;DHT22;37940;53.002;6.930;2022-09-12T04:40:34;12.30;99.90
51914;DHT22;37940;53.002;6.930;2022-09-12T04:42:59;12.30;99.90
51914;DHT22;37940;53.002;6.930;2022-09-12T04:45:25;12.30;99.90
51914;DHT22;37940;53.002;6.930;2022-09-12T04:47:51;12.30;99.90
51914;DHT22;37940;53.002;6.930;2022-09-12T04:50:17;12.20;99.90
51914;DHT22;37940;53.002;6.930;2022-09-12T04:52:49;12.30;99.90
51914;DHT22;37940;53.002;6.930;2022-09-12T04:55:15;12.30;99.90
51914;DHT22;37940;53.002;6.930;2022-09-12T04:57:41;12.30;99.90
51914;DHT22;37940;53.002;6.930;2022-09-12T05:00:08;12.30;99.90
51914;DHT22;37940;53.002;6.930;2022-09-12T05:02:38;12.30;99.90
51914;DHT22;37940;53.002;6.930;2022-09-12T05:05:04;12.30;99.90
51914;DHT22;37940;53.002;6.930;2022-09-12T05:07:30;12.40;99.90
51914;DHT22;37940;53.002;6.930;2022-09-12T05:09:56;12.40;99.90
51914;DHT22;37940;53.002;6.930;2022-09-12T05:12:23;12.30;99.90
51914;DHT22;37940;53.002;6.930;2022-09-12T05:14:48;12.40;99.90
51914;DHT22;37940;53.002;6.930;2022-09-12T05:17:14;12.40;99.90
51914;DHT22;37940;53.002;6.930;2022-09-12T05:19:40;12.40;99.90
51914;DHT22;37940;53.002;6.930;2022-09-12T05:22:06;12.50;99.90
51914;DHT22;37940;53.002;6.930;2022-09-12T05:24:31;12.50;99.90
51914;DHT22;37940;53.002;6.930;2022-09-12T05:26:57;12.60;99.90
51914;DHT22;37940;53.002;6.930;2022-09-12T05:29:23;12.70;99.90
51914;DHT22;37940;53.002;6.930;2022-09-12T05:31:50;12.70;99.90
51914;DHT22;37940;53.002;6.930;2022-09-12T05:34:18;12.80;99.90
51914;DHT22;37940;53.002;6.930;2022-09-12T05:36:44;12.90;99.90
51914;DHT22;37940;53.002;6.930;2022-09-12T05:39:10;13.10;99.90
51914;DHT22;37940;53.002;6.930;2022-09-12T05:41:35;13.20;99.90
51914;DHT22;37940;53.002;6.930;2022-09-12T05:44:03;13.40;99.90
51914;DHT22;37940;53.002;6.930;2022-09-12T05:46:34;13.50;99.90
51914;DHT22;37940;53.002;6.930;2022-09-12T05:49:05;13.60;99.90
51914;DHT22;37940;53.002;6.930;2022-09-12T05:51:33;13.80;99.90
51914;DHT22;37940;53.002;6.930;2022-09-12T05:54:00;14.00;99.90
51914;DHT22;37940;53.002;6.930;2022-09-12T05:56:32;14.10;99.90
51914;DHT22;37940;53.002;6.930;2022-09-12T05:59:00;14.30;99.90
51914;DHT22;37940;53.002;6.930;2022-09-12T06:01:27;14.40;99.90
51914;DHT22;37940;53.002;6.930;2022-09-12T06:03:54;14.70;99.90
51914;DHT22;37940;53.002;6.930;2022-09-12T06:06:22;14.90;99.90
51914;DHT22;37940;53.002;6.930;2022-09-12T06:08:50;15.00;99.90
51914;DHT22;37940;53.002;6.930;2022-09-12T06:11:19;15.10;99.90
51914;DHT22;37940;53.002;6.930;2022-09-12T06:13:49;15.20;99.90
51914;DHT22;37940;53.002;6.930;2022-09-12T06:16:19;15.20;99.90
51914;DHT22;37940;53.002;6.930;2022-09-12T06:18:57;15.10;99.90
51914;DHT22;37940;53.002;6.930;2022-09-12T06:21:24;15.00;99.90
51914;DHT22;37940;53.002;6.930;2022-09-12T06:23:52;15.00;99.90
51914;DHT22;37940;53.002;6.930;2022-09-12T06:26:18;14.90;99.90
51914;DHT22;37940;53.002;6.930;2022-09-12T06:28:48;14.90;99.90
51914;DHT22;37940;53.002;6.930;2022-09-12T06:31:16;14.90;99.90
51914;DHT22;37940;53.002;6.930;2022-09-12T06:33:45;14.90;99.90
51914;DHT22;37940;53.002;6.930;2022-09-12T06:36:19;14.90;99.90
51914;DHT22;37940;53.002;6.930;2022-09-12T06:38:46;14.90;99.90
51914;DHT22;37940;53.002;6.930;2022-09-12T06:41:13;14.90;99.90
51914;DHT22;37940;53.002;6.930;2022-09-12T06:43:40;15.00;99.90
51914;DHT22;37940;53.002;6.930;2022-09-12T06:46:07;15.00;99.90
51914;DHT22;37940;53.002;6.930;2022-09-12T06:48:33;15.00;99.90
51914;DHT22;37940;53.002;6.930;2022-09-12T06:51:11;15.10;99.90
51914;DHT22;37940;53.002;6.930;2022-09-12T06:53:37;15.20;99.90
51914;DHT22;37940;53.002;6.930;2022-09-12T06:56:05;15.20;99.90
51914;DHT22;37940;53.002;6.930;2022-09-12T06:58:32;15.30;99.90
51914;DHT22;37940;53.002;6.930;2022-09-12T07:01:12;15.30;99.90
51914;DHT22;37940;53.002;6.930;2022-09-12T07:03:40;15.40;99.90
51914;DHT22;37940;53.002;6.930;2022-09-12T07:06:12;15.40;99.90
51914;DHT22;37940;53.002;6.930;2022-09-12T07:08:39;15.50;99.90
51914;DHT22;37940;53.002;6.930;2022-09-12T07:11:20;15.50;99.90
51914;DHT22;37940;53.002;6.930;2022-09-12T07:13:52;15.50;99.90
51914;DHT22;37940;53.002;6.930;2022-09-12T07:16:18;15.60;99.90
51914;DHT22;37940;53.002;6.930;2022-09-12T07:18:48;15.60;99.90
51914;DHT22;37940;53.002;6.930;2022-09-12T07:21:14;15.70;99.90
51914;DHT22;37940;53.002;6.930;2022-09-12T07:23:40;15.70;99.90
51914;DHT22;37940;53.002;6.930;2022-09-12T07:26:11;15.70;99.90
51914;DHT22;37940;53.002;6.930;2022-09-12T07:28:37;15.80;99.90
51914;DHT22;37940;53.002;6.930;2022-09-12T07:31:16;15.80;99.90
51914;DHT22;37940;53.002;6.930;2022-09-12T07:33:43;15.80;99.90
51914;DHT22;37940;53.002;6.930;2022-09-12T07:36:14;15.90;99.90
51914;DHT22;37940;53.002;6.930;2022-09-12T07:38:41;15.90;99.90
51914;DHT22;37940;53.002;6.930;2022-09-12T07:41:18;15.90;99.90
51914;DHT22;37940;53.002;6.930;2022-09-12T07:43:45;16.00;99.90
51914;DHT22;37940;53.002;6.930;2022-09-12T07:46:12;16.10;99.90
51914;DHT22;37940;53.002;6.930;2022-09-12T07:48:39;16.10;99.90
51914;DHT22;37940;53.002;6.930;2022-09-12T07:51:07;16.20;99.90
51914;DHT22;37940;53.002;6.930;2022-09-12T07:53:38;16.30;99.90
51914;DHT22;37940;53.002;6.930;2022-09-12T07:56:05;16.30;99.90
51914;DHT22;37940;53.002;6.930;2022-09-12T07:58:33;16.50;99.90
51914;DHT22;37940;53.002;6.930;2022-09-12T08:01:04;16.60;99.90
51914;DHT22;37940;53.002;6.930;2022-09-12T08:03:30;16.70;99.90
51914;DHT22;37940;53.002;6.930;2022-09-12T08:06:20;16.90;99.90
51914;DHT22;37940;53.002;6.930;2022-09-12T08:08:49;17.00;99.90
51914;DHT22;37940;53.002;6.930;2022-09-12T08:11:17;17.20;99.90
51914;DHT22;37940;53.002;6.930;2022-09-12T08:13:44;17.30;99.90
51914;DHT22;37940;53.002;6.930;2022-09-12T08:16:15;17.40;99.90
51914;DHT22;37940;53.002;6.930;2022-09-12T08:18:42;17.60;99.90
51914;DHT22;37940;53.002;6.930;2022-09-12T08:21:17;17.60;99.90
51914;DHT22;37940;53.002;6.930;2022-09-12T08:23:44;17.80;99.90
51914;DHT22;37940;53.002;6.930;2022-09-12T08:26:11;17.80;99.90
51914;DHT22;37940;53.002;6.930;2022-09-12T08:28:37;17.80;99.90
51914;DHT22;37940;53.002;6.930;2022-09-12T08:31:08;17.70;99.90
51914;DHT22;37940;53.002;6.930;2022-09-12T08:33:35;17.80;99.90
51914;DHT22;37940;53.002;6.930;2022-09-12T08:38:31;17.80;99.90
51914;DHT22;37940;53.002;6.930;2022-09-12T08:41:39;17.80;99.90
51914;DHT22;37940;53.002;6.930;2022-09-12T08:44:30;17.90;99.90
51914;DHT22;37940;53.002;6.930;2022-09-12T08:47:16;17.90;99.90
51914;DHT22;37940;53.002;6.930;2022-09-12T08:54:51;18.50;99.90
51914;DHT22;37940;53.002;6.930;2022-09-12T08:57:18;18.60;99.90
51914;DHT22;37940;53.002;6.930;2022-09-12T08:59:44;18.60;99.90
51914;DHT22;37940;53.002;6.930;2022-09-12T09:02:29;18.70;99.90
51914;DHT22;37940;53.002;6.930;2022-09-12T09:07:57;18.90;99.90
51914;DHT22;37940;53.002;6.930;2022-09-12T09:10:34;19.10;99.90
51914;DHT22;37940;53.002;6.930;2022-09-12T09:16:08;19.20;99.90
51914;DHT22;37940;53.002;6.930;2022-09-12T09:18:35;19.20;99.90
51914;DHT22;37940;53.002;6.930;2022-09-12T09:21:04;19.30;99.90
51914;DHT22;37940;53.002;6.930;2022-09-12T09:23:41;19.30;99.90
51914;DHT22;37940;53.002;6.930;2022-09-12T09:26:15;19.40;99.90
51914;DHT22;37940;53.002;6.930;2022-09-12T09:28:52;19.40;99.90
51914;DHT22;37940;53.002;6.930;2022-09-12T09:31:23;19.40;99.90
51914;DHT22;37940;53.002;6.930;2022-09-12T09:33:52;19.50;99.90
51914;DHT22;37940;53.002;6.930;2022-09-12T09:36:21;19.50;99.90
51914;DHT22;37940;53.002;6.930;2022-09-12T09:38:49;19.60;99.90
51914;DHT22;37940;53.002;6.930;2022-09-12T09:44:01;19.80;99.90
51914;DHT22;37940;53.002;6.930;2022-09-12T09:46:27;19.90;99.90
51914;DHT22;37940;53.002;6.930;2022-09-12T09:48:54;20.00;99.90
51914;DHT22;37940;53.002;6.930;2022-09-12T09:51:28;20.20;99.90
51914;DHT22;37940;53.002;6.930;2022-09-12T09:54:30;20.30;99.90
51914;DHT22;37940;53.002;6.930;2022-09-12T09:56:57;20.40;99.90
51914;DHT22;37940;53.002;6.930;2022-09-12T09:59:31;20.50;99.90
51914;DHT22;37940;53.002;6.930;2022-09-12T10:04:40;20.90;99.90
51914;DHT22;37940;53.002;6.930;2022-09-12T10:07:17;21.10;99.90
51914;DHT22;37940;53.002;6.930;2022-09-12T10:10:17;21.20;99.90
51914;DHT22;37940;53.002;6.930;2022-09-12T10:12:44;21.40;99.90
51914;DHT22;37940;53.002;6.930;2022-09-12T10:15:21;21.50;99.90
51914;DHT22;37940;53.002;6.930;2022-09-12T10:17:51;21.70;99.90
51914;DHT22;37940;53.002;6.930;2022-09-12T10:20:39;21.90;99.90
51914;DHT22;37940;53.002;6.930;2022-09-12T10:25:48;22.10;99.90
51914;DHT22;37940;53.002;6.930;2022-09-12T10:28:31;22.20;99.90
51914;DHT22;37940;53.002;6.930;2022-09-12T10:30:57;22.40;99.90
51914;DHT22;37940;53.002;6.930;2022-09-12T10:33:27;22.60;99.90
51914;DHT22;37940;53.002;6.930;2022-09-12T10:35:54;22.80;99.90
51914;DHT22;37940;53.002;6.930;2022-09-12T10:38:26;22.90;99.90
51914;DHT22;37940;53.002;6.930;2022-09-12T10:41:03;22.70;99.90
51914;DHT22;37940;53.002;6.930;2022-09-12T10:43:38;22.60;99.90
51914;DHT22;37940;53.002;6.930;2022-09-12T10:48:39;22.50;99.90
51914;DHT22;37940;53.002;6.930;2022-09-12T10:51:11;22.60;99.90
51914;DHT22;37940;53.002;6.930;2022-09-12T10:53:45;22.60;99.90
51914;DHT22;37940;53.002;6.930;2022-09-12T10:56:13;22.70;99.90
51914;DHT22;37940;53.002;6.930;2022-09-12T11:04:19;22.90;99.90
51914;DHT22;37940;53.002;6.930;2022-09-12T11:07:46;22.80;99.90
51914;DHT22;37940;53.002;6.930;2022-09-12T11:35:17;23.20;99.90
51914;DHT22;37940;53.002;6.930;2022-09-12T11:40:54;23.30;99.90
51914;DHT22;37940;53.002;6.930;2022-09-12T11:43:22;23.50;99.90
51914;DHT22;37940;53.002;6.930;2022-09-12T11:45:50;23.50;99.90
51914;DHT22;37940;53.002;6.930;2022-09-12T11:51:06;23.60;99.90
51914;DHT22;37940;53.002;6.930;2022-09-12T11:53:39;23.60;99.90
51914;DHT22;37940;53.002;6.930;2022-09-12T11:56:16;23.70;99.90
51914;DHT22;37940;53.002;6.930;2022-09-12T11:59:31;23.80;99.90
51914;DHT22;37940;53.002;6.930;2022-09-12T12:01:38;23.80;99.90
51914;DHT22;37940;53.002;6.930;2022-09-12T12:04:10;23.90;99.90
51914;DHT22;37940;53.002;6.930;2022-09-12T12:06:52;23.90;99.90
51914;DHT22;37940;53.002;6.930;2022-09-12T12:09:18;23.80;99.90
51914;DHT22;37940;53.002;6.930;2022-09-12T12:11:49;23.70;99.90
51914;DHT22;37940;53.002;6.930;2022-09-12T12:14:17;23.60;99.90
51914;DHT22;37940;53.002;6.930;2022-09-12T12:16:45;23.70;99.90
51914;DHT22;37940;53.002;6.930;2022-09-12T12:24:25;23.80;99.90
51914;DHT22;37940;53.002;6.930;2022-09-12T12:26:56;23.90;99.90
51914;DHT22;37940;53.002;6.930;2022-09-12T12:32:18;24.00;99.90
51914;DHT22;37940;53.002;6.930;2022-09-12T12:34:45;24.10;99.90
51914;DHT22;37940;53.002;6.930;2022-09-12T12:52:58;24.30;99.90
51914;DHT22;37940;53.002;6.930;2022-09-12T12:57:59;24.40;99.90
51914;DHT22;37940;53.002;6.930;2022-09-12T13:00:27;24.40;99.90
51914;DHT22;37940;53.002;6.930;2022-09-12T13:05:24;24.60;99.90
51914;DHT22;37940;53.002;6.930;2022-09-12T13:07:57;24.70;99.90
51914;DHT22;37940;53.002;6.930;2022-09-12T13:10:26;24.70;99.90
51914;DHT22;37940;53.002;6.930;2022-09-12T13:12:58;24.70;99.90
51914;DHT22;37940;53.002;6.930;2022-09-12T13:18:12;24.80;99.90
51914;DHT22;37940;53.002;6.930;2022-09-12T13:23:35;24.70;99.90
51914;DHT22;37940;53.002;6.930;2022-09-12T13:26:02;24.70;99.90
51914;DHT22;37940;53.002;6.930;2022-09-12T13:28:29;24.60;99.90
51914;DHT22;37940;53.002;6.930;2022-09-12T13:33:54;24.50;99.90
51914;DHT22;37940;53.002;6.930;2022-09-12T13:44:16;24.50;99.90
51914;DHT22;37940;53.002;6.930;2022-09-12T13:46:44;24.40;99.90
51914;DHT22;37940;53.002;6.930;2022-09-12T13:49:34;24.50;99.90
51914;DHT22;37940;53.002;6.930;2022-09-12T13:52:04;24.50;99.90
51914;DHT22;37940;53.002;6.930;2022-09-12T13:54:33;24.40;99.90
51914;DHT22;37940;53.002;6.930;2022-09-12T13:57:02;24.50;99.90
51914;DHT22;37940;53.002;6.930;2022-09-12T13:59:40;24.40;99.90
51914;DHT22;37940;53.002;6.930;2022-09-12T14:02:21;24.50;99.90
51914;DHT22;37940;53.002;6.930;2022-09-12T14:04:48;24.50;99.90
51914;DHT22;37940;53.002;6.930;2022-09-12T14:10:36;24.40;99.90
51914;DHT22;37940;53.002;6.930;2022-09-12T14:13:23;24.40;99.90
51914;DHT22;37940;53.002;6.930;2022-09-12T14:16:11;24.40;99.90
51914;DHT22;37940;53.002;6.930;2022-09-12T14:18:39;24.30;99.90
51914;DHT22;37940;53.002;6.930;2022-09-12T14:23:59;24.20;99.90
51914;DHT22;37940;53.002;6.930;2022-09-12T14:26:27;24.10;99.90
51914;DHT22;37940;53.002;6.930;2022-09-12T14:28:57;24.10;99.90
51914;DHT22;37940;53.002;6.930;2022-09-12T14:31:29;24.00;99.90
51914;DHT22;37940;53.002;6.930;2022-09-12T14:34:17;24.00;99.90
51914;DHT22;37940;53.002;6.930;2022-09-12T14:36:50;24.00;99.90
51914;DHT22;37940;53.002;6.930;2022-09-12T14:39:41;24.00;99.90
51914;DHT22;37940;53.002;6.930;2022-09-12T14:42:17;24.00;99.90
51914;DHT22;37940;53.002;6.930;2022-09-12T14:45:00;23.90;99.90
51914;DHT22;37940;53.002;6.930;2022-09-12T14:47:36;24.00;99.90
51914;DHT22;37940;53.002;6.930;2022-09-12T14:50:21;24.00;99.90
51914;DHT22;37940;53.002;6.930;2022-09-12T14:53:05;24.00;99.90
51914;DHT22;37940;53.002;6.930;2022-09-12T14:55:33;24.00;99.90
51914;DHT22;37940;53.002;6.930;2022-09-12T15:03:25;23.90;99.90
51914;DHT22;37940;53.002;6.930;2022-09-12T15:05:51;23.80;99.90
51914;DHT22;37940;53.002;6.930;2022-09-12T15:08:16;23.90;99.90
51914;DHT22;37940;53.002;6.930;2022-09-12T15:10:42;24.00;99.90
51914;DHT22;37940;53.002;6.930;2022-09-12T15:15:35;24.20;99.90
51914;DHT22;37940;53.002;6.930;2022-09-12T15:18:01;24.30;99.90
51914;DHT22;37940;53.002;6.930;2022-09-12T15:20:26;24.30;99.90
51914;DHT22;37940;53.002;6.930;2022-09-12T15:22:52;24.30;99.90
51914;DHT22;37940;53.002;6.930;2022-09-12T15:25:18;24.20;99.90
51914;DHT22;37940;53.002;6.930;2022-09-12T15:27:45;24.10;99.90
51914;DHT22;37940;53.002;6.930;2022-09-12T15:30:12;24.00;99.90
51914;DHT22;37940;53.002;6.930;2022-09-12T15:32:39;24.00;99.90
51914;DHT22;37940;53.002;6.930;2022-09-12T15:35:17;23.90;99.90
51914;DHT22;37940;53.002;6.930;2022-09-12T15:37:44;23.90;99.90
51914;DHT22;37940;53.002;6.930;2022-09-12T15:40:13;24.00;99.90
51914;DHT22;37940;53.002;6.930;2022-09-12T15:42:39;24.00;99.90
51914;DHT22;37940;53.002;6.930;2022-09-12T15:45:18;24.00;99.90
51914;DHT22;37940;53.002;6.930;2022-09-12T15:47:45;24.10;99.90
51914;DHT22;37940;53.002;6.930;2022-09-12T15:50:11;24.10;99.90
51914;DHT22;37940;53.002;6.930;2022-09-12T15:52:36;24.00;99.90
51914;DHT22;37940;53.002;6.930;2022-09-12T15:55:03;23.90;99.90
51914;DHT22;37940;53.002;6.930;2022-09-12T15:57:29;23.90;99.90
51914;DHT22;37940;53.002;6.930;2022-09-12T15:59:54;23.90;99.90
51914;DHT22;37940;53.002;6.930;2022-09-12T16:02:20;23.80;99.90
51914;DHT22;37940;53.002;6.930;2022-09-12T16:04:46;23.70;99.90
51914;DHT22;37940;53.002;6.930;2022-09-12T16:07:12;23.70;99.90
51914;DHT22;37940;53.002;6.930;2022-09-12T16:09:38;23.60;99.90
51914;DHT22;37940;53.002;6.930;2022-09-12T16:12:04;23.50;99.90
51914;DHT22;37940;53.002;6.930;2022-09-12T16:14:44;23.40;99.90
51914;DHT22;37940;53.002;6.930;2022-09-12T16:17:42;23.30;99.90
51914;DHT22;37940;53.002;6.930;2022-09-12T16:20:22;23.20;99.90
51914;DHT22;37940;53.002;6.930;2022-09-12T16:22:58;23.10;99.90
51914;DHT22;37940;53.002;6.930;2022-09-12T16:25:23;23.00;99.90
51914;DHT22;37940;53.002;6.930;2022-09-12T16:27:50;22.90;99.90
51914;DHT22;37940;53.002;6.930;2022-09-12T16:30:15;22.90;99.90
51914;DHT22;37940;53.002;6.930;2022-09-12T16:32:41;22.80;99.90
51914;DHT22;37940;53.002;6.930;2022-09-12T16:35:07;22.70;99.90
51914;DHT22;37940;53.002;6.930;2022-09-12T16:37:33;22.60;99.90
51914;DHT22;37940;53.002;6.930;2022-09-12T16:39:59;22.60;99.90
51914;DHT22;37940;53.002;6.930;2022-09-12T16:42:25;22.50;99.90
51914;DHT22;37940;53.002;6.930;2022-09-12T16:44:51;22.40;99.90
51914;DHT22;37940;53.002;6.930;2022-09-12T16:47:16;22.30;99.90
51914;DHT22;37940;53.002;6.930;2022-09-12T16:49:42;22.20;99.90
51914;DHT22;37940;53.002;6.930;2022-09-12T16:52:08;22.10;99.90
51914;DHT22;37940;53.002;6.930;2022-09-12T16:54:35;22.10;99.90
51914;DHT22;37940;53.002;6.930;2022-09-12T16:57:01;22.00;99.90
51914;DHT22;37940;53.002;6.930;2022-09-12T16:59:29;21.90;99.90
51914;DHT22;37940;53.002;6.930;2022-09-12T17:01:55;21.80;99.90
51914;DHT22;37940;53.002;6.930;2022-09-12T17:04:21;21.70;99.90
51914;DHT22;37940;53.002;6.930;2022-09-12T17:06:46;21.70;99.90
51914;DHT22;37940;53.002;6.930;2022-09-12T17:09:12;21.60;99.90
51914;DHT22;37940;53.002;6.930;2022-09-12T17:11:44;21.40;99.90
51914;DHT22;37940;53.002;6.930;2022-09-12T17:14:11;21.40;99.90
51914;DHT22;37940;53.002;6.930;2022-09-12T17:16:42;21.30;99.90
51914;DHT22;37940;53.002;6.930;2022-09-12T17:19:12;21.20;99.90
51914;DHT22;37940;53.002;6.930;2022-09-12T17:21:41;21.20;99.90
51914;DHT22;37940;53.002;6.930;2022-09-12T17:24:07;21.10;99.90
51914;DHT22;37940;53.002;6.930;2022-09-12T17:26:33;21.00;99.90
51914;DHT22;37940;53.002;6.930;2022-09-12T17:28:59;20.90;99.90
51914;DHT22;37940;53.002;6.930;2022-09-12T17:31:26;20.90;99.90
51914;DHT22;37940;53.002;6.930;2022-09-12T17:33:56;20.80;99.90
51914;DHT22;37940;53.002;6.930;2022-09-12T17:36:23;20.70;99.90
51914;DHT22;37940;53.002;6.930;2022-09-12T17:38:49;20.70;99.90
51914;DHT22;37940;53.002;6.930;2022-09-12T17:41:18;20.60;99.90
51914;DHT22;37940;53.002;6.930;2022-09-12T17:43:53;20.50;99.90
51914;DHT22;37940;53.002;6.930;2022-09-12T17:46:22;20.40;99.90
51914;DHT22;37940;53.002;6.930;2022-09-12T17:48:56;20.30;99.90
51914;DHT22;37940;53.002;6.930;2022-09-12T17:51:23;20.20;99.90
51914;DHT22;37940;53.002;6.930;2022-09-12T17:54:08;20.10;99.90
51914;DHT22;37940;53.002;6.930;2022-09-12T17:56:35;20.00;99.90
51914;DHT22;37940;53.002;6.930;2022-09-12T17:59:02;19.90;99.90
51914;DHT22;37940;53.002;6.930;2022-09-12T18:01:28;19.80;99.90
51914;DHT22;37940;53.002;6.930;2022-09-12T18:04:13;19.70;99.90
51914;DHT22;37940;53.002;6.930;2022-09-12T18:06:38;19.60;99.90
51914;DHT22;37940;53.002;6.930;2022-09-12T18:09:07;19.60;99.90
51914;DHT22;37940;53.002;6.930;2022-09-12T18:11:34;19.50;99.90
51914;DHT22;37940;53.002;6.930;2022-09-12T18:14:01;19.40;99.90
51914;DHT22;37940;53.002;6.930;2022-09-12T18:16:27;19.40;99.90
51914;DHT22;37940;53.002;6.930;2022-09-12T18:18:53;19.40;99.90
51914;DHT22;37940;53.002;6.930;2022-09-12T18:21:19;19.30;99.90
51914;DHT22;37940;53.002;6.930;2022-09-12T18:23:46;19.20;99.90
51914;DHT22;37940;53.002;6.930;2022-09-12T18:26:12;19.10;99.90
51914;DHT22;37940;53.002;6.930;2022-09-12T18:28:41;19.10;99.90